createdAt,value
2016-07-23T00:00:29.962Z,6.56
2016-07-23T00:01:29.990Z,6.57
2016-07-23T00:02:30.732Z,6.53
2016-07-23T00:03:30.085Z,6.54
2016-07-23T00:04:30.130Z,6.56
2016-07-23T00:05:30.856Z,6.56
2016-07-23T00:06:30.240Z,6.57
2016-07-23T00:07:30.276Z,6.53
2016-07-23T00:08:31.030Z,6.56
2016-07-23T00:09:31.104Z,6.53
2016-07-23T00:10:30.444Z,6.48
2016-07-23T00:11:30.477Z,6.57
2016-07-23T00:12:31.243Z,6.53
2016-07-23T00:13:31.278Z,6.48
2016-07-23T00:14:29.918Z,6.35
2016-07-23T00:15:31.369Z,6.44
2016-07-23T00:16:31.398Z,6.22
2016-07-23T00:17:30.765Z,6.53
2016-07-23T00:18:31.513Z,6.48
2016-07-23T00:19:31.090Z,6.42
2016-07-23T00:20:30.230Z,6.27
2016-07-23T00:21:31.673Z,6.33
2016-07-23T00:22:31.716Z,6.2
2016-07-23T00:23:31.056Z,6.24
2016-07-23T00:24:31.780Z,6.2
2016-07-23T00:25:30.458Z,6.18
2016-07-23T00:26:31.915Z,6.28
2016-07-23T00:27:31.931Z,6.22
2016-07-23T00:28:31.975Z,6.22
2016-07-23T00:29:31.334Z,6.12
2016-07-23T00:30:32.100Z,6.15
2016-07-23T00:31:32.378Z,6.1
2016-07-23T00:32:31.704Z,6.16
2016-07-23T00:33:46.475Z,6.18
2016-07-23T00:34:32.298Z,6.22
2016-07-23T00:35:32.337Z,6.24
2016-07-23T00:36:31.700Z,6.24
2016-07-23T00:37:32.416Z,6.15
2016-07-23T00:38:31.803Z,6.11
2016-07-23T00:39:32.509Z,6.11
2016-07-23T00:40:32.607Z,6.16
2016-07-23T00:41:31.911Z,6.12
2016-07-23T00:42:32.667Z,6.12
2016-07-23T00:43:32.047Z,6.15
2016-07-23T00:44:32.099Z,6.15
2016-07-23T00:45:32.114Z,6.12
2016-07-23T00:46:33.082Z,6.16
2016-07-23T00:47:32.232Z,6.18
2016-07-23T00:48:32.997Z,6.18
2016-07-23T00:49:33.039Z,6.2
2016-07-23T00:50:33.048Z,6.3
2016-07-23T00:51:31.708Z,6.2
2016-07-23T00:52:33.172Z,6.2
2016-07-23T00:53:32.532Z,6.31
2016-07-23T00:54:32.552Z,6.3
2016-07-23T00:55:31.904Z,6.31
2016-07-23T00:56:33.356Z,6.38
2016-07-23T00:57:32.558Z,6.36
2016-07-23T00:58:32.586Z,6.39
2016-07-23T00:59:32.628Z,6.48
2016-07-23T01:00:31.983Z,6.51
2016-07-23T01:01:32.727Z,6.59
2016-07-23T01:02:32.774Z,6.54
2016-07-23T01:03:32.832Z,6.56
2016-07-23T01:04:32.876Z,6.59
2016-07-23T01:05:32.927Z,6.46
2016-07-23T01:06:33.018Z,6.38
2016-07-23T01:07:32.320Z,6.38
2016-07-23T01:08:33.097Z,6.42
2016-07-23T01:09:33.114Z,6.49
2016-07-23T01:10:33.184Z,6.42
2016-07-23T01:11:33.210Z,6.51
2016-07-23T01:12:33.267Z,6.53
2016-07-23T01:13:33.315Z,6.38
2016-07-23T01:14:33.367Z,6.45
2016-07-23T01:15:33.433Z,6.41
2016-07-23T01:16:33.482Z,6.46
2016-07-23T01:17:33.504Z,6.49
2016-07-23T01:18:33.560Z,6.33
2016-07-23T01:19:32.907Z,6.31
2016-07-23T01:20:32.960Z,6.38
2016-07-23T01:21:33.705Z,6.35
2016-07-23T01:22:33.777Z,6.53
2016-07-23T01:23:33.822Z,6.35
2016-07-23T01:24:33.868Z,6.39
2016-07-23T01:25:33.890Z,6.31
2016-07-23T01:26:33.959Z,6.33
2016-07-23T01:27:33.990Z,6.42
2016-07-23T01:28:34.045Z,6.35
2016-07-23T01:29:34.085Z,6.42
2016-07-23T01:30:34.143Z,6.46
2016-07-23T01:31:34.219Z,6.45
2016-07-23T01:32:34.258Z,6.42
2016-07-23T01:33:34.280Z,6.51
2016-07-23T01:34:34.332Z,6.51
2016-07-23T01:35:34.413Z,6.45
2016-07-23T01:36:33.752Z,6.31
2016-07-23T01:37:33.790Z,6.33
2016-07-23T01:38:34.748Z,6.42
2016-07-23T01:39:34.636Z,6.26
2016-07-23T01:40:34.623Z,6.3
2016-07-23T01:41:34.695Z,6.24
2016-07-23T01:42:34.744Z,6.28
2016-07-23T01:43:34.802Z,6.28
2016-07-23T01:44:34.835Z,6.33
2016-07-23T01:45:34.869Z,6.45
2016-07-23T01:46:34.940Z,6.38
2016-07-23T01:47:34.983Z,6.31
2016-07-23T01:48:35.007Z,6.35
2016-07-23T01:49:35.053Z,6.35
2016-07-23T01:50:34.618Z,6.31
2016-07-23T01:51:35.354Z,6.3
2016-07-23T01:52:35.417Z,6.35
2016-07-23T01:53:35.255Z,6.36
2016-07-23T01:54:35.300Z,6.38
2016-07-23T01:55:35.346Z,6.41
2016-07-23T01:56:35.401Z,6.39
2016-07-23T01:57:35.445Z,6.28
2016-07-23T01:58:35.498Z,6.27
2016-07-23T01:59:35.548Z,6.31
2016-07-23T02:00:35.616Z,6.26
2016-07-23T02:01:35.643Z,6.41
2016-07-23T02:02:35.747Z,6.33
2016-07-23T02:03:35.740Z,6.36
2016-07-23T02:04:35.098Z,6.38
2016-07-23T02:05:35.842Z,6.28
2016-07-23T02:06:35.204Z,6.28
2016-07-23T02:07:35.960Z,6.2
2016-07-23T02:08:35.279Z,6.22
2016-07-23T02:09:36.023Z,6.24
2016-07-23T02:10:36.098Z,6.22
2016-07-23T02:11:36.129Z,6.26
2016-07-23T02:12:36.199Z,6.3
2016-07-23T02:13:35.524Z,6.26
2016-07-23T02:14:36.275Z,6.22
2016-07-23T02:15:36.343Z,6.26
2016-07-23T02:16:36.588Z,6.31
2016-07-23T02:17:36.461Z,6.27
2016-07-23T02:18:36.500Z,6.26
2016-07-23T02:19:36.549Z,6.26
2016-07-23T02:20:36.580Z,6.28
2016-07-23T02:21:36.634Z,6.2
2016-07-23T02:22:36.701Z,6.19
2016-07-23T02:23:36.704Z,6.2
2016-07-23T02:24:36.780Z,6.2
2016-07-23T02:25:36.808Z,6.2
2016-07-23T02:26:36.846Z,6.24
2016-07-23T02:27:37.168Z,6.24
2016-07-23T02:28:50.826Z,6.19
2016-07-23T02:29:37.222Z,6.18
2016-07-23T02:30:36.570Z,6.18
2016-07-23T02:31:36.390Z,6.15
2016-07-23T02:32:37.165Z,6.2
2016-07-23T02:33:37.206Z,6.27
2016-07-23T02:34:37.260Z,6.35
2016-07-23T02:35:37.308Z,6.26
2016-07-23T02:36:37.327Z,6.16
2016-07-23T02:37:37.408Z,6.18
2016-07-23T02:38:37.458Z,6.15
2016-07-23T02:39:37.483Z,6.16
2016-07-23T02:40:37.546Z,6.19
2016-07-23T02:41:37.577Z,6.15
2016-07-23T02:42:36.925Z,6.12
2016-07-23T02:43:37.693Z,6.15
2016-07-23T02:44:37.743Z,6.18
2016-07-23T02:45:37.785Z,6.18
2016-07-23T02:46:37.130Z,6.1
2016-07-23T02:47:37.884Z,6.19
2016-07-23T02:48:37.915Z,6.15
2016-07-23T02:49:37.965Z,6.12
2016-07-23T02:50:38.013Z,6.12
2016-07-23T02:51:38.104Z,6.22
2016-07-23T02:52:37.419Z,6.18
2016-07-23T02:53:38.174Z,6.16
2016-07-23T02:54:38.226Z,5.98
2016-07-23T02:55:38.274Z,6.1
2016-07-23T02:56:38.293Z,6.12
2016-07-23T02:57:38.363Z,6.16
2016-07-23T02:58:38.397Z,6.15
2016-07-23T02:59:38.441Z,6.15
2016-07-23T03:00:38.516Z,6.16
2016-07-23T03:01:38.563Z,6.15
2016-07-23T03:02:38.593Z,6.05
2016-07-23T03:03:38.654Z,6.1
2016-07-23T03:04:38.680Z,6.11
2016-07-23T03:05:38.057Z,6.12
2016-07-23T03:06:38.804Z,6.11
2016-07-23T03:07:38.838Z,6.12
2016-07-23T03:08:38.901Z,6.18
2016-07-23T03:09:38.964Z,6.08
2016-07-23T03:10:39.003Z,6.08
2016-07-23T03:11:38.327Z,6.04
2016-07-23T03:12:39.083Z,6.16
2016-07-23T03:13:39.142Z,6.02
2016-07-23T03:14:38.489Z,6.01
2016-07-23T03:15:39.222Z,6.07
2016-07-23T03:16:38.576Z,6.24
2016-07-23T03:17:39.317Z,6.15
2016-07-23T03:18:39.385Z,6.22
2016-07-23T03:19:39.428Z,6.33
2016-07-23T03:20:39.492Z,6.24
2016-07-23T03:21:39.529Z,6.08
2016-07-23T03:22:38.851Z,6.18
2016-07-23T03:23:39.601Z,6.18
2016-07-23T03:24:39.681Z,6.38
2016-07-23T03:25:39.018Z,6.53
2016-07-23T03:26:39.741Z,6.33
2016-07-23T03:27:39.090Z,6.38
2016-07-23T03:28:39.835Z,6.31
2016-07-23T03:29:39.910Z,6.19
2016-07-23T03:30:39.962Z,6.12
2016-07-23T03:31:40.004Z,6.35
2016-07-23T03:32:40.041Z,6.15
2016-07-23T03:33:40.104Z,6.16
2016-07-23T03:34:40.148Z,6.24
2016-07-23T03:35:39.490Z,6.19
2016-07-23T03:36:39.534Z,6.2
2016-07-23T03:37:40.279Z,6.16
2016-07-23T03:38:39.633Z,6.2
2016-07-23T03:39:40.388Z,6.18
2016-07-23T03:40:39.725Z,6.18
2016-07-23T03:41:40.473Z,6.26
2016-07-23T03:42:40.535Z,6.36
2016-07-23T03:43:39.866Z,6.48
2016-07-23T03:44:39.938Z,6.59
2016-07-23T03:45:40.660Z,6.49
2016-07-23T03:46:40.735Z,6.54
2016-07-23T03:47:40.758Z,6.42
2016-07-23T03:48:40.831Z,6.3
2016-07-23T03:49:40.860Z,6.16
2016-07-23T03:50:40.910Z,6.11
2016-07-23T03:51:40.957Z,6.67
2016-07-23T03:52:40.298Z,6.63
2016-07-23T03:53:41.048Z,6.51
2016-07-23T03:54:41.120Z,6.38
2016-07-23T03:55:41.169Z,6.6
2016-07-23T03:56:41.191Z,6.53
2016-07-23T03:57:41.244Z,6.44
2016-07-23T03:58:41.287Z,6.56
2016-07-23T03:59:41.340Z,6.56
2016-07-23T04:00:41.383Z,6.67
2016-07-23T04:01:41.462Z,6.63
2016-07-23T04:02:40.800Z,6.64
2016-07-23T04:03:41.534Z,6.56
2016-07-23T04:04:41.604Z,6.54
2016-07-23T04:05:41.654Z,6.7
2016-07-23T04:06:41.673Z,6.96
2016-07-23T04:07:41.027Z,6.99
2016-07-23T04:08:41.796Z,6.96
2016-07-23T04:09:41.838Z,6.9
2016-07-23T04:10:41.184Z,7.06
2016-07-23T04:11:41.936Z,7.24
2016-07-23T04:12:41.974Z,7.28
2016-07-23T04:13:42.020Z,7.02
2016-07-23T04:14:42.083Z,7.06
2016-07-23T04:15:42.142Z,7.06
2016-07-23T04:16:42.157Z,7.06
2016-07-23T04:17:42.208Z,7.24
2016-07-23T04:18:42.286Z,7.15
2016-07-23T04:19:42.335Z,7.21
2016-07-23T04:20:42.393Z,7.25
2016-07-23T04:21:42.410Z,7.31
2016-07-23T04:22:42.457Z,7.17
2016-07-23T04:23:42.507Z,7.18
2016-07-23T04:24:42.559Z,7.14
2016-07-23T04:25:42.605Z,7.25
2016-07-23T04:26:42.669Z,7.24
2016-07-23T04:27:42.716Z,7.14
2016-07-23T04:28:42.062Z,7.14
2016-07-23T04:29:42.794Z,7.06
2016-07-23T04:30:42.148Z,6.96
2016-07-23T04:31:42.891Z,6.87
2016-07-23T04:32:42.939Z,6.78
2016-07-23T04:33:42.996Z,6.75
2016-07-23T04:34:43.058Z,7.07
2016-07-23T04:35:43.094Z,6.96
2016-07-23T04:36:42.455Z,7.13
2016-07-23T04:37:43.214Z,7.18
2016-07-23T04:38:43.263Z,7.14
2016-07-23T04:39:42.600Z,7.1
2016-07-23T04:40:43.331Z,7.23
2016-07-23T04:41:43.386Z,7.13
2016-07-23T04:42:43.452Z,7.14
2016-07-23T04:43:43.501Z,7.18
2016-07-23T04:44:43.852Z,7.2
2016-07-23T04:45:42.888Z,7.23
2016-07-23T04:46:43.654Z,7.24
2016-07-23T04:47:42.985Z,7.21
2016-07-23T04:48:43.744Z,7.36
2016-07-23T04:49:43.802Z,7.4
2016-07-23T04:50:43.824Z,7.33
2016-07-23T04:51:43.875Z,7.29
2016-07-23T04:52:43.932Z,7.33
2016-07-23T04:53:43.286Z,7.33
2016-07-23T04:54:44.022Z,7.18
2016-07-23T04:55:44.089Z,7.23
2016-07-23T04:56:44.133Z,7.24
2016-07-23T04:57:43.476Z,7.2
2016-07-23T04:58:43.536Z,7.2
2016-07-23T04:59:44.288Z,7.17
2016-07-23T05:00:44.326Z,7.18
2016-07-23T05:01:43.683Z,7.23
2016-07-23T05:02:44.436Z,7.42
2016-07-23T05:03:44.496Z,7.36
2016-07-23T05:04:44.517Z,7.29
2016-07-23T05:05:44.591Z,7.39
2016-07-23T05:06:43.925Z,7.39
2016-07-23T05:07:44.694Z,7.31
2016-07-23T05:08:44.730Z,7.31
2016-07-23T05:09:44.784Z,7.32
2016-07-23T05:10:44.817Z,7.35
2016-07-23T05:11:44.172Z,7.43
2016-07-23T05:12:44.936Z,7.47
2016-07-23T05:13:44.979Z,7.4
2016-07-23T05:14:45.027Z,7.39
2016-07-23T05:15:45.060Z,7.43
2016-07-23T05:16:45.111Z,7.48
2016-07-23T05:17:45.160Z,7.42
2016-07-23T05:18:45.214Z,7.39
2016-07-23T05:19:44.568Z,7.39
2016-07-23T05:20:45.312Z,7.4
2016-07-23T05:21:45.356Z,7.38
2016-07-23T05:22:44.710Z,7.33
2016-07-23T05:23:45.462Z,7.33
2016-07-23T05:24:44.819Z,7.29
2016-07-23T05:25:45.565Z,7.36
2016-07-23T05:26:45.627Z,7.42
2016-07-23T05:27:45.659Z,7.42
2016-07-23T05:28:45.703Z,7.36
2016-07-23T05:29:45.766Z,7.4
2016-07-23T05:30:45.823Z,7.51
2016-07-23T05:31:45.175Z,7.47
2016-07-23T05:32:45.935Z,7.5
2016-07-23T05:33:45.974Z,7.5
2016-07-23T05:34:46.046Z,7.48
2016-07-23T05:35:46.078Z,7.53
2016-07-23T05:36:46.101Z,7.54
2016-07-23T05:37:46.198Z,7.5
2016-07-23T05:38:46.222Z,7.43
2016-07-23T05:39:46.253Z,7.5
2016-07-23T05:40:45.611Z,7.51
2016-07-23T05:41:46.349Z,7.56
2016-07-23T05:42:46.428Z,7.63
2016-07-23T05:43:46.463Z,7.48
2016-07-23T05:44:45.824Z,7.57
2016-07-23T05:45:46.574Z,7.43
2016-07-23T05:46:46.820Z,7.51
2016-07-23T05:47:46.652Z,7.43
2016-07-23T05:48:46.021Z,7.54
2016-07-23T05:49:46.773Z,7.57
2016-07-23T05:50:46.816Z,7.67
2016-07-23T05:51:46.159Z,7.66
2016-07-23T05:52:46.200Z,7.75
2016-07-23T05:53:46.972Z,7.69
2016-07-23T05:54:46.318Z,7.63
2016-07-23T05:55:47.052Z,7.69
2016-07-23T05:56:47.095Z,7.58
2016-07-23T05:57:47.171Z,7.54
2016-07-23T05:58:47.217Z,7.54
2016-07-23T05:59:47.245Z,7.5
2016-07-23T06:00:46.618Z,7.51
2016-07-23T06:01:46.671Z,7.51
2016-07-23T06:02:47.404Z,7.51
2016-07-23T06:03:47.455Z,7.51
2016-07-23T06:04:47.492Z,7.53
2016-07-23T06:05:47.548Z,7.51
2016-07-23T06:06:47.604Z,7.57
2016-07-23T06:07:46.960Z,7.56
2016-07-23T06:08:47.718Z,7.53
2016-07-23T06:09:47.056Z,7.57
2016-07-23T06:10:47.814Z,7.43
2016-07-23T06:11:47.170Z,7.42
2016-07-23T06:12:47.931Z,7.58
2016-07-23T06:13:47.997Z,7.72
2016-07-23T06:14:48.004Z,7.6
2016-07-23T06:15:48.051Z,7.51
2016-07-23T06:16:48.105Z,7.45
2016-07-23T06:17:48.143Z,7.51
2016-07-23T06:18:48.214Z,7.42
2016-07-23T06:19:48.270Z,7.51
2016-07-23T06:20:47.594Z,7.63
2016-07-23T06:21:48.349Z,7.54
2016-07-23T06:22:48.422Z,7.67
2016-07-23T06:23:48.470Z,7.53
2016-07-23T06:24:48.494Z,7.5
2016-07-23T06:25:48.568Z,7.53
2016-07-23T06:26:48.601Z,7.51
2016-07-23T06:27:48.669Z,7.51
2016-07-23T06:28:48.715Z,7.54
2016-07-23T06:29:48.290Z,7.58
2016-07-23T06:30:48.809Z,7.8
2016-07-23T06:31:48.845Z,7.87
2016-07-23T06:32:48.917Z,7.73
2016-07-23T06:33:48.943Z,7.77
2016-07-23T06:34:49.012Z,7.77
2016-07-23T06:35:49.063Z,7.97
2016-07-23T06:36:48.391Z,7.9
2016-07-23T06:37:49.158Z,8.03
2016-07-23T06:38:49.209Z,8.16
2016-07-23T06:39:48.556Z,8.19
2016-07-23T06:40:49.314Z,8.08
2016-07-23T06:41:49.340Z,8.15
2016-07-23T06:42:49.407Z,8.13
2016-07-23T06:43:48.757Z,8.08
2016-07-23T06:44:49.529Z,8.23
2016-07-23T06:45:49.535Z,8.28
2016-07-23T06:46:49.615Z,8.19
2016-07-23T06:47:48.952Z,7.88
2016-07-23T06:48:49.707Z,8.09
2016-07-23T06:49:49.772Z,8.19
2016-07-23T06:50:49.815Z,8.3
2016-07-23T06:51:49.832Z,8.51
2016-07-23T06:52:49.211Z,8.3
2016-07-23T06:53:49.945Z,8.38
2016-07-23T06:54:50.014Z,8.33
2016-07-23T06:55:50.163Z,8.42
2016-07-23T06:56:50.109Z,8.48
2016-07-23T06:57:49.454Z,8.49
2016-07-23T06:58:50.195Z,8.38
2016-07-23T06:59:50.241Z,8.43
2016-07-23T07:00:50.290Z,8.42
2016-07-23T07:01:50.346Z,8.28
2016-07-23T07:02:50.416Z,8.28
2016-07-23T07:03:49.745Z,8.21
2016-07-23T07:04:50.496Z,8.12
2016-07-23T07:05:50.060Z,8.03
2016-07-23T07:06:49.923Z,7.9
2016-07-23T07:07:50.646Z,8.26
2016-07-23T07:08:50.711Z,8.45
2016-07-23T07:09:50.042Z,8.43
2016-07-23T07:10:50.808Z,8.51
2016-07-23T07:11:50.366Z,8.52
2016-07-23T07:12:50.912Z,8.64
2016-07-23T07:13:50.969Z,8.53
2016-07-23T07:14:50.307Z,8.46
2016-07-23T07:15:51.066Z,8.61
2016-07-23T07:16:51.115Z,8.63
2016-07-23T07:17:51.155Z,8.61
2016-07-23T07:18:51.217Z,8.69
2016-07-23T07:19:51.270Z,8.53
2016-07-23T07:20:51.291Z,8.49
2016-07-23T07:21:51.388Z,8.51
2016-07-23T07:22:51.396Z,8.53
2016-07-23T07:23:51.465Z,8.46
2016-07-23T07:24:51.491Z,8.38
2016-07-23T07:25:51.572Z,8.38
2016-07-23T07:26:51.591Z,8.53
2016-07-23T07:27:51.649Z,8.64
2016-07-23T07:28:51.737Z,8.85
2016-07-23T07:29:51.250Z,8.86
2016-07-23T07:30:51.799Z,8.85
2016-07-23T07:31:51.848Z,8.78
2016-07-23T07:32:51.895Z,8.85
2016-07-23T07:33:51.963Z,8.91
2016-07-23T07:34:51.319Z,8.88
2016-07-23T07:35:51.369Z,8.84
2016-07-23T07:36:52.097Z,9
2016-07-23T07:37:52.161Z,8.89
2016-07-23T07:38:52.193Z,8.97
2016-07-23T07:39:51.556Z,8.86
2016-07-23T07:40:52.297Z,8.85
2016-07-23T07:41:52.352Z,9.1
2016-07-23T07:42:52.649Z,9.22
2016-07-23T07:43:51.754Z,9.08
2016-07-23T07:44:52.517Z,8.96
2016-07-23T07:45:51.864Z,9.32
2016-07-23T07:46:52.948Z,9.22
2016-07-23T07:47:52.675Z,9.3
2016-07-23T07:48:52.719Z,9.37
2016-07-23T07:49:52.072Z,9.19
2016-07-23T07:50:52.109Z,9.02
2016-07-23T07:51:52.871Z,8.84
2016-07-23T07:52:52.219Z,8.84
2016-07-23T07:53:52.954Z,8.76
2016-07-23T07:54:52.322Z,8.52
2016-07-23T07:55:53.101Z,8.74
2016-07-23T07:56:53.138Z,8.91
2016-07-23T07:57:53.181Z,9.19
2016-07-23T07:58:53.226Z,9.29
2016-07-23T07:59:52.571Z,9.4
2016-07-23T08:00:53.336Z,9.36
2016-07-23T08:01:53.357Z,9.13
2016-07-23T08:02:53.419Z,9.14
2016-07-23T08:03:53.482Z,9.13
2016-07-23T08:04:52.836Z,9.26
2016-07-23T08:05:53.555Z,8.86
2016-07-23T08:06:53.609Z,8.88
2016-07-23T08:07:52.972Z,8.84
2016-07-23T08:08:53.734Z,8.85
2016-07-23T08:09:53.763Z,9.46
2016-07-23T08:10:53.828Z,9.73
2016-07-23T08:11:53.859Z,9.83
2016-07-23T08:12:53.253Z,10.06
2016-07-23T08:13:53.989Z,10.16
2016-07-23T08:14:54.014Z,10.24
2016-07-23T08:15:54.081Z,9.73
2016-07-23T08:16:54.120Z,9.59
2016-07-23T08:17:53.477Z,9.62
2016-07-23T08:18:54.247Z,9.51
2016-07-23T08:19:54.277Z,9.58
2016-07-23T08:20:54.337Z,9.58
2016-07-23T08:21:54.370Z,9.54
2016-07-23T08:22:53.735Z,9.58
2016-07-23T08:23:54.473Z,9.62
2016-07-23T08:24:53.850Z,9.51
2016-07-23T08:25:53.883Z,9.47
2016-07-23T08:26:54.643Z,9.43
2016-07-23T08:27:54.689Z,9.48
2016-07-23T08:28:54.749Z,9.5
2016-07-23T08:29:54.803Z,9.56
2016-07-23T08:30:54.837Z,9.43
2016-07-23T08:31:54.910Z,9.41
2016-07-23T08:32:54.962Z,9.54
2016-07-23T08:33:55.044Z,9.59
2016-07-23T08:34:55.036Z,9.58
2016-07-23T08:35:55.092Z,9.5
2016-07-23T08:36:55.156Z,9.46
2016-07-23T08:37:54.514Z,9.3
2016-07-23T08:38:55.260Z,9.41
2016-07-23T08:39:54.609Z,9.21
2016-07-23T08:40:55.362Z,9.34
2016-07-23T08:41:55.393Z,9.41
2016-07-23T08:42:54.770Z,9.21
2016-07-23T08:43:55.503Z,9.3
2016-07-23T08:44:55.565Z,9.19
2016-07-23T08:45:55.606Z,9.48
2016-07-23T08:46:55.876Z,9.56
2016-07-23T08:47:55.722Z,9.65
2016-07-23T08:48:55.055Z,9.63
2016-07-23T08:49:55.117Z,9.81
2016-07-23T08:50:55.863Z,9.71
2016-07-23T08:51:55.910Z,9.8
2016-07-23T08:52:55.274Z,9.97
2016-07-23T08:53:56.028Z,9.71
2016-07-23T08:54:56.085Z,9.68
2016-07-23T08:55:55.646Z,9.58
2016-07-23T08:56:56.167Z,9.44
2016-07-23T08:57:56.239Z,9.43
2016-07-23T08:58:56.296Z,9.59
2016-07-23T08:59:56.347Z,9.36
2016-07-23T09:00:55.670Z,9.44
2016-07-23T09:01:56.449Z,9.58
2016-07-23T09:02:56.469Z,9.5
2016-07-23T09:03:56.581Z,9.59
2016-07-23T09:04:56.609Z,9.61
2016-07-23T09:05:56.623Z,9.86
2016-07-23T09:06:56.679Z,9.66
2016-07-23T09:07:56.751Z,9.59
2016-07-23T09:08:56.795Z,9.69
2016-07-23T09:09:56.846Z,9.59
2016-07-23T09:10:56.876Z,9.66
2016-07-23T09:11:56.956Z,9.5
2016-07-23T09:12:57.000Z,9.44
2016-07-23T09:13:57.058Z,9.41
2016-07-23T09:14:57.088Z,9.51
2016-07-23T09:15:57.130Z,9.51
2016-07-23T09:16:56.487Z,9.5
2016-07-23T09:17:57.258Z,9.55
2016-07-23T09:18:57.285Z,10.06
2016-07-23T09:19:57.355Z,10.22
2016-07-23T09:20:57.413Z,10.44
2016-07-23T09:21:57.466Z,10.65
2016-07-23T09:22:57.510Z,10.76
2016-07-23T09:23:56.859Z,10.6
2016-07-23T09:24:57.619Z,10.06
2016-07-23T09:25:57.668Z,10.2
2016-07-23T09:26:57.224Z,10.39
2016-07-23T09:27:57.052Z,10.3
2016-07-23T09:28:57.819Z,10.23
2016-07-23T09:29:57.878Z,10.39
2016-07-23T09:30:57.905Z,10.53
2016-07-23T09:31:57.982Z,10.69
2016-07-23T09:32:58.013Z,10.78
2016-07-23T09:33:58.066Z,10.66
2016-07-23T09:34:58.110Z,10.61
2016-07-23T09:35:57.464Z,10.35
2016-07-23T09:36:58.214Z,10.41
2016-07-23T09:37:58.295Z,10.41
2016-07-23T09:38:58.341Z,10.75
2016-07-23T09:39:58.395Z,10.54
2016-07-23T09:40:58.442Z,10.2
2016-07-23T09:41:58.495Z,10.12
2016-07-23T09:42:58.526Z,10.09
2016-07-23T09:43:57.900Z,10.13
2016-07-23T09:44:58.627Z,10.22
2016-07-23T09:45:58.703Z,10.12
2016-07-23T09:46:58.810Z,9.98
2016-07-23T09:47:58.100Z,9.95
2016-07-23T09:48:58.862Z,10.1
2016-07-23T09:49:58.941Z,10.47
2016-07-23T09:50:58.243Z,10.78
2016-07-23T09:51:59.026Z,10.81
2016-07-23T09:52:58.359Z,10.54
2016-07-23T09:53:59.115Z,10.41
2016-07-23T09:54:58.461Z,10.65
2016-07-23T09:55:59.429Z,10.37
2016-07-23T09:56:59.279Z,10.53
2016-07-23T09:57:59.324Z,11.05
2016-07-23T09:58:59.379Z,11.07
2016-07-23T09:59:59.637Z,11.67
2016-07-23T10:00:59.455Z,11.88
2016-07-23T10:01:59.529Z,11.04
2016-07-23T10:02:59.570Z,10.44
2016-07-23T10:03:59.620Z,10.56
2016-07-23T10:04:59.666Z,10.44
2016-07-23T10:05:59.035Z,10.71
2016-07-23T10:06:59.092Z,11.05
2016-07-23T10:07:59.138Z,10.89
2016-07-23T10:08:59.880Z,11.15
2016-07-23T10:09:59.927Z,11.11
2016-07-23T10:10:59.981Z,11
2016-07-23T10:12:00.053Z,11.07
2016-07-23T10:13:00.328Z,10.6
2016-07-23T10:14:00.337Z,10.24
2016-07-23T10:15:00.185Z,10.3
2016-07-23T10:16:00.258Z,10.65
2016-07-23T10:17:00.292Z,10.74
2016-07-23T10:18:00.364Z,10.6
2016-07-23T10:19:00.398Z,10.91
2016-07-23T10:20:00.475Z,11.14
2016-07-23T10:21:00.501Z,11.7
2016-07-23T10:22:00.572Z,11.6
2016-07-23T10:23:00.636Z,11.09
2016-07-23T10:24:00.687Z,10.46
2016-07-23T10:25:00.731Z,9.83
2016-07-23T10:26:00.763Z,9.66
2016-07-23T10:27:00.815Z,9.51
2016-07-23T10:28:00.878Z,9.59
2016-07-23T10:29:00.940Z,9.62
2016-07-23T10:30:01.003Z,10.1
2016-07-23T10:31:01.021Z,10.42
2016-07-23T10:32:01.102Z,10.3
2016-07-23T10:33:01.157Z,10.17
2016-07-23T10:34:01.242Z,10.06
2016-07-23T10:35:01.327Z,10.39
2016-07-23T10:36:01.312Z,11.22
2016-07-23T10:37:01.338Z,11.19
2016-07-23T10:38:01.414Z,11.04
2016-07-23T10:39:00.769Z,10.89
2016-07-23T10:40:01.497Z,10.71
2016-07-23T10:41:01.577Z,10.22
2016-07-23T10:42:01.625Z,9.68
2016-07-23T10:43:01.669Z,9.68
2016-07-23T10:44:01.709Z,9.61
2016-07-23T10:45:01.759Z,9.73
2016-07-23T10:46:01.824Z,9.65
2016-07-23T10:47:02.004Z,9.73
2016-07-23T10:48:01.934Z,10.27
2016-07-23T10:49:01.989Z,10.04
2016-07-23T10:50:02.033Z,9.61
2016-07-23T10:51:02.061Z,9.22
2016-07-23T10:52:02.128Z,8.92
2016-07-23T10:53:02.168Z,9.06
2016-07-23T10:54:02.221Z,9.16
2016-07-23T10:55:01.580Z,8.97
2016-07-23T10:56:02.347Z,8.96
2016-07-23T10:57:02.393Z,9.08
2016-07-23T10:58:02.435Z,9.18
2016-07-23T10:59:02.487Z,9.51
2016-07-23T11:00:02.536Z,9.29
2016-07-23T11:01:02.607Z,9.22
2016-07-23T11:02:02.634Z,9.11
2016-07-23T11:03:02.700Z,9.08
2016-07-23T11:04:02.747Z,9.19
2016-07-23T11:05:02.820Z,9.44
2016-07-23T11:06:02.856Z,9.37
2016-07-23T11:07:02.903Z,9.51
2016-07-23T11:08:02.262Z,9.3
2016-07-23T11:09:02.982Z,9.04
2016-07-23T11:10:03.060Z,8.84
2016-07-23T11:11:03.095Z,8.73
2016-07-23T11:12:03.190Z,8.59
2016-07-23T11:13:03.208Z,8.67
2016-07-23T11:14:03.244Z,8.64
2016-07-23T11:15:03.289Z,8.61
2016-07-23T11:16:03.340Z,8.46
2016-07-23T11:17:03.421Z,8.41
2016-07-23T11:18:03.443Z,8.31
2016-07-23T11:19:03.513Z,8.56
2016-07-23T11:20:03.572Z,9.25
2016-07-23T11:21:03.613Z,8.89
2016-07-23T11:22:03.667Z,8.84
2016-07-23T11:23:03.703Z,9.32
2016-07-23T11:24:03.773Z,9.06
2016-07-23T11:25:03.801Z,8.86
2016-07-23T11:26:03.389Z,8.38
2016-07-23T11:27:03.225Z,8.43
2016-07-23T11:28:03.982Z,8.24
2016-07-23T11:29:04.004Z,8.18
2016-07-23T11:30:04.072Z,8.3
2016-07-23T11:31:04.121Z,8.46
2016-07-23T11:32:04.159Z,8.46
2016-07-23T11:33:04.232Z,8.42
2016-07-23T11:34:04.272Z,8.43
2016-07-23T11:35:04.309Z,8.3
2016-07-23T11:36:04.380Z,8.31
2016-07-23T11:37:04.402Z,8.13
2016-07-23T11:38:04.479Z,8.35
2016-07-23T11:39:03.811Z,8.46
2016-07-23T11:40:04.559Z,8.49
2016-07-23T11:41:04.631Z,8.78
2016-07-23T11:42:04.653Z,8.7
2016-07-23T11:43:04.728Z,8.49
2016-07-23T11:44:04.760Z,8.7
2016-07-23T11:45:04.116Z,8.71
2016-07-23T11:46:04.858Z,8.45
2016-07-23T11:47:05.086Z,8.74
2016-07-23T11:48:04.954Z,8.84
2016-07-23T11:49:05.012Z,8.7
2016-07-23T11:50:05.065Z,8.86
2016-07-23T11:51:05.116Z,8.94
2016-07-23T11:52:05.161Z,8.91
2016-07-23T11:53:05.237Z,8.05
2016-07-23T11:54:05.288Z,8.26
2016-07-23T11:55:04.626Z,8.42
2016-07-23T11:56:05.387Z,8.28
2016-07-23T11:57:05.425Z,7.31
2016-07-23T11:58:05.481Z,7.2
2016-07-23T11:59:05.518Z,6.75
2016-07-23T12:00:05.602Z,6.2
2016-07-23T12:01:05.630Z,6.6
2016-07-23T12:02:05.691Z,6.87
2016-07-23T12:03:05.738Z,6.87
2016-07-23T12:04:05.786Z,7.53
2016-07-23T12:05:05.902Z,7.15
2016-07-23T12:06:05.860Z,7.03
2016-07-23T12:07:05.938Z,7.15
2016-07-23T12:08:05.280Z,7.15
2016-07-23T12:09:06.043Z,7.17
2016-07-23T12:10:06.331Z,6.95
2016-07-23T12:11:06.131Z,7.06
2016-07-23T12:12:06.166Z,7
2016-07-23T12:13:06.237Z,7.24
2016-07-23T12:14:06.289Z,7.28
2016-07-23T12:16:06.379Z,7.33
2016-07-23T12:17:06.412Z,7.23
2016-07-23T12:18:06.479Z,7.21
2016-07-23T12:19:05.813Z,7.25
2016-07-23T12:20:06.585Z,7.39
2016-07-23T12:21:06.608Z,7.63
2016-07-23T12:22:06.887Z,7.58
2016-07-23T12:23:06.912Z,7.54
2016-07-23T12:24:06.060Z,7.61
2016-07-23T12:25:06.813Z,7.5
2016-07-23T12:26:06.179Z,7.56
2016-07-23T12:27:06.217Z,7.67
2016-07-23T12:28:06.968Z,7.82
2016-07-23T12:29:07.017Z,7.63
2016-07-23T12:30:07.082Z,7.61
2016-07-23T12:31:07.134Z,7.75
2016-07-23T12:32:07.159Z,7.75
2016-07-23T12:33:07.208Z,7.8
2016-07-23T12:34:07.261Z,7.94
2016-07-23T12:35:06.616Z,8.16
2016-07-23T12:36:06.672Z,7.82
2016-07-23T12:37:07.449Z,7.85
2016-07-23T12:38:07.490Z,8.03
2016-07-23T12:39:06.862Z,8.27
2016-07-23T12:40:07.567Z,8.1
2016-07-23T12:41:07.614Z,8.01
2016-07-23T12:42:07.685Z,7.87
2016-07-23T12:43:07.032Z,8.05
2016-07-23T12:44:07.798Z,7.88
2016-07-23T12:45:07.910Z,7.51
2016-07-23T12:46:07.888Z,7.51
2016-07-23T12:47:07.919Z,7.47
2016-07-23T12:48:07.997Z,7.42
2016-07-23T12:49:08.020Z,7.25
2016-07-23T12:50:08.125Z,7.2
2016-07-23T12:51:08.326Z,7.07
2016-07-23T12:52:08.394Z,6.97
2016-07-23T12:53:08.236Z,7.06
2016-07-23T12:54:08.269Z,7.28
2016-07-23T12:55:08.584Z,7.29
2016-07-23T12:56:08.374Z,7.32
2016-07-23T12:57:08.423Z,7.35
2016-07-23T12:58:08.472Z,7.42
2016-07-23T12:59:08.721Z,7.33
2016-07-23T13:00:07.866Z,7.32
2016-07-23T13:01:08.618Z,7.43
2016-07-23T13:02:08.686Z,7.57
2016-07-23T13:03:08.731Z,7.42
2016-07-23T13:04:08.990Z,7.42
2016-07-23T13:05:08.853Z,7.38
2016-07-23T13:06:08.900Z,7.31
2016-07-23T13:07:08.415Z,7.31
2016-07-23T13:08:08.956Z,7.1
2016-07-23T13:09:09.031Z,7.29
2016-07-23T13:10:09.081Z,7.38
2016-07-23T13:11:08.418Z,7.28
2016-07-23T13:12:08.473Z,7.82
2016-07-23T13:13:09.218Z,7.51
2016-07-23T13:14:09.268Z,7.43
2016-07-23T13:15:09.296Z,7.66
2016-07-23T13:16:09.345Z,7.54
2016-07-23T13:17:09.404Z,7.83
2016-07-23T13:18:08.753Z,7.45
2016-07-23T13:19:09.492Z,7.82
2016-07-23T13:20:09.545Z,8.15